Time;durP1;ratioP1;P1;durP2;ratioP2;P2;SDS_P1;SDS_P2;PMS_P1;PMS_P2;Temp;Humidity;BMP_temperature;BMP_pressure;BME280_temperature;BME280_humidity;BME280_pressure;Samples;Min_cycle;Max_cycle;Signal;HPM_P1;HPM_P2
2021/09/10 00:01:20;;;;;;;;;;;19.10;99.90;;;;;;5002290;28;20104;-78
2021/09/10 00:03:46;;;;;;;5.97;4.03;;;19.10;99.90;;;;;;4973775;28;19918;-78
2021/09/10 00:06:12;;;;;;;;;;;19.10;99.90;;;;;;4991951;28;20046;-80
2021/09/10 00:08:37;;;;;;;9.65;4.60;;;19.10;99.90;;;;;;4999032;28;20255;-80
2021/09/10 00:11:03;;;;;;;;;;;19.10;99.90;;;;;;4992037;28;20101;-80
2021/09/10 00:13:29;;;;;;;7.03;4.45;;;19.10;99.90;;;;;;4975028;28;19925;-80
2021/09/10 00:15:54;;;;;;;;;;;19.10;99.90;;;;;;4981187;28;20407;-80
2021/09/10 00:18:22;;;;;;;6.75;4.18;;;19.10;99.90;;;;;;5035157;28;19928;-80
2021/09/10 00:20:48;;;;;;;7.72;4.45;;;19.10;99.90;;;;;;5003704;28;20073;-80
2021/09/10 00:23:14;;;;;;;7.25;4.57;;;19.10;99.90;;;;;;4991552;28;20038;-77
2021/09/10 00:25:40;;;;;;;9.48;3.97;;;19.20;99.90;;;;;;5003796;28;20128;-79
2021/09/10 00:28:06;;;;;;;;;;;19.10;99.90;;;;;;4991186;28;20097;-79
2021/09/10 00:30:31;;;;;;;7.10;3.67;;;19.20;99.90;;;;;;5004488;28;19921;-78
2021/09/10 00:32:57;;;;;;;;;;;19.10;99.90;;;;;;5008730;28;20052;-79
2021/09/10 00:35:22;;;;;;;5.10;3.60;;;19.10;99.90;;;;;;5044083;28;19925;-81
2021/09/10 00:37:48;;;;;;;;;;;19.10;99.90;;;;;;5010734;28;20168;-80
2021/09/10 00:40:14;;;;;;;4.95;3.40;;;19.10;99.90;;;;;;5025724;28;19917;-80
2021/09/10 00:42:39;;;;;;;;;;;19.20;99.90;;;;;;4962831;28;20050;-79
2021/09/10 00:45:06;;;;;;;7.60;4.45;;;19.10;99.90;;;;;;4990915;28;20298;-79
2021/09/10 00:47:32;;;;;;;7.95;4.47;;;19.10;99.90;;;;;;5000123;28;20400;-80
2021/09/10 00:49:58;;;;;;;8.43;4.38;;;19.10;99.90;;;;;;4991231;28;20030;-80
2021/09/10 00:52:24;;;;;;;8.13;3.75;;;19.10;99.90;;;;;;4979532;28;20054;-79
2021/09/10 00:54:50;;;;;;;8.55;4.35;;;19.10;99.90;;;;;;4991590;28;20586;-80
2021/09/10 00:57:16;;;;;;;11.57;3.65;;;19.10;99.90;;;;;;5004123;28;20081;-80
2021/09/10 00:59:41;;;;;;;9.90;4.70;;;19.00;99.90;;;;;;4994939;28;20129;-78
2021/09/10 01:02:07;;;;;;;9.93;5.53;;;19.00;99.90;;;;;;4982439;28;20480;-80
2021/09/10 01:04:33;;;;;;;8.48;3.53;;;19.00;99.90;;;;;;4992702;28;20041;-79
2021/09/10 01:07:00;;;;;;;7.75;4.63;;;19.00;99.90;;;;;;4990011;28;20038;-79
2021/09/10 01:09:27;;;;;;;5.18;4.00;;;19.00;99.90;;;;;;4988579;28;20134;-78
2021/09/10 01:11:53;;;;;;;6.20;4.38;;;19.00;99.90;;;;;;4994259;28;20117;-80
2021/09/10 01:14:20;;;;;;;8.27;4.82;;;19.00;99.90;;;;;;4995973;28;20074;-78
2021/09/10 01:16:47;;;;;;;7.15;4.30;;;19.00;99.90;;;;;;5013932;28;20058;-78
2021/09/10 01:19:27;;;;;;;9.02;4.18;;;18.90;99.90;;;;;;4994423;28;20077;-79
2021/09/10 01:21:56;;;;;;;6.95;4.28;;;19.00;99.90;;;;;;5006883;28;20041;-79
2021/09/10 01:24:59;;;;;;;7.18;5.07;;;18.90;99.90;;;;;;4996572;28;20038;-79
2021/09/10 01:27:25;;;;;;;6.85;3.60;;;18.90;99.90;;;;;;4994986;28;20054;-78
2021/09/10 01:29:51;;;;;;;6.65;3.88;;;18.90;99.90;;;;;;5002807;28;20049;-79
2021/09/10 01:32:17;;;;;;;4.63;3.38;;;18.90;99.90;;;;;;4999927;28;20050;-80
2021/09/10 01:34:42;;;;;;;;;;;18.90;99.90;;;;;;5004638;28;20042;-80
2021/09/10 01:37:08;;;;;;;5.40;3.28;;;18.90;99.90;;;;;;5040670;28;19921;-78
2021/09/10 01:39:33;;;;;;;;;;;18.90;99.90;;;;;;5003004;28;20045;-80
2021/09/10 01:41:59;;;;;;;9.07;3.78;;;18.80;99.90;;;;;;5034641;28;19930;-78
2021/09/10 01:44:25;;;;;;;;;;;18.80;99.90;;;;;;4994647;28;20125;-79
2021/09/10 01:46:50;;;;;;;6.70;3.88;;;18.80;99.90;;;;;;5026431;28;19952;-80
2021/09/10 01:49:16;;;;;;;;;;;18.80;99.90;;;;;;4995658;28;20200;-80
2021/09/10 01:51:42;;;;;;;8.75;3.10;;;18.80;99.90;;;;;;5028913;28;19917;-78
2021/09/10 01:54:08;;;;;;;5.15;3.58;;;18.80;99.90;;;;;;4988384;28;20046;-78
2021/09/10 01:56:34;;;;;;;6.10;2.85;;;18.80;99.90;;;;;;4991783;28;20050;-79
2021/09/10 01:58:59;;;;;;;;;;;18.80;99.90;;;;;;5013313;28;20089;-79
2021/09/10 02:01:27;;;;;;;3.85;3.25;;;18.80;99.90;;;;;;5031007;28;19926;-79
2021/09/10 02:03:53;;;;;;;3.65;2.60;;;18.80;99.90;;;;;;5001212;28;20503;-78
2021/09/10 02:06:19;;;;;;;3.13;2.13;;;18.80;99.90;;;;;;5011093;28;20053;-78
2021/09/10 02:08:45;;;;;;;;;;;18.80;99.90;;;;;;4993989;28;20042;-78
2021/09/10 02:11:11;;;;;;;6.25;3.30;;;18.80;99.90;;;;;;5026334;28;20303;-78
2021/09/10 02:13:36;;;;;;;5.60;2.38;;;18.80;99.90;;;;;;4993342;28;20042;-79
2021/09/10 02:16:02;;;;;;;4.22;3.42;;;18.70;99.90;;;;;;5015095;28;20045;-79
2021/09/10 02:18:28;;;;;;;10.00;4.40;;;18.70;99.90;;;;;;4996127;28;20140;-78
2021/09/10 02:20:54;;;;;;;5.45;3.95;;;18.70;99.90;;;;;;4993532;28;20066;-78
2021/09/10 02:23:19;;;;;;;;;;;18.70;99.90;;;;;;5006951;28;20503;-80
2021/09/10 02:25:45;;;;;;;4.47;3.42;;;18.70;99.90;;;;;;4992869;28;19925;-81
2021/09/10 02:28:11;;;;;;;;;;;18.70;99.90;;;;;;4977495;28;20061;-79
2021/09/10 02:30:36;;;;;;;8.70;3.42;;;18.70;99.90;;;;;;4980964;28;19964;-80
2021/09/10 02:33:02;;;;;;;;;;;18.70;99.90;;;;;;4992256;28;20054;-79
2021/09/10 02:35:28;;;;;;;7.15;4.60;;;18.70;99.90;;;;;;4995431;28;19918;-80
2021/09/10 02:37:53;;;;;;;;;;;18.70;99.90;;;;;;5003724;28;20046;-80
2021/09/10 02:40:20;;;;;;;9.63;5.47;;;18.70;99.90;;;;;;5026319;28;19918;-79
2021/09/10 02:42:47;;;;;;;15.43;6.07;;;18.70;99.90;;;;;;4992480;28;20512;-80
2021/09/10 02:45:12;;;;;;;6.35;4.47;;;18.80;99.90;;;;;;4995636;28;20042;-78
2021/09/10 02:47:38;;;;;;;8.35;6.20;;;18.70;99.90;;;;;;5002994;28;20096;-77
2021/09/10 02:50:04;;;;;;;;;;;18.80;99.90;;;;;;4988657;28;20476;-77
2021/09/10 02:52:30;;;;;;;6.03;4.93;;;18.80;99.90;;;;;;5025825;28;19921;-79
2021/09/10 02:54:55;;;;;;;;;;;18.70;99.90;;;;;;5005963;28;20046;-78
2021/09/10 02:57:21;;;;;;;12.40;5.68;;;18.80;99.90;;;;;;4992477;28;20295;-78
2021/09/10 02:59:47;;;;;;;;;;;18.80;99.90;;;;;;4989997;28;20041;-78
2021/09/10 03:02:12;;;;;;;8.88;5.50;;;18.80;99.90;;;;;;5017267;28;19921;-79
2021/09/10 03:04:38;;;;;;;;;;;18.80;99.90;;;;;;4983136;28;20142;-79
2021/09/10 03:07:04;;;;;;;13.48;5.40;;;18.70;99.90;;;;;;4995885;28;19921;-78
2021/09/10 03:09:29;;;;;;;;;;;18.70;99.90;;;;;;5008904;28;20152;-79
2021/09/10 03:11:55;;;;;;;10.50;5.25;;;18.70;99.90;;;;;;5013605;28;19918;-77
2021/09/10 03:14:20;;;;;;;;;;;18.60;99.90;;;;;;4993563;28;20046;-78
2021/09/10 03:16:46;;;;;;;13.15;6.47;;;18.60;99.90;;;;;;5017160;28;19926;-79
2021/09/10 03:19:12;;;;;;;;;;;18.60;99.90;;;;;;5011484;28;20526;-77
2021/09/10 03:21:39;;;;;;;12.25;6.35;;;18.60;99.90;;;;;;5039752;28;20400;-81
2021/09/10 03:24:06;;;;;;;9.82;5.93;;;18.60;99.90;;;;;;4983765;28;20129;-78
2021/09/10 03:26:31;;;;;;;10.77;6.13;;;18.60;99.90;;;;;;5003008;28;20035;-78
2021/09/10 03:28:57;;;;;;;10.70;5.65;;;18.60;99.90;;;;;;4993102;28;20511;-77
2021/09/10 03:31:23;;;;;;;;;;;18.60;99.90;;;;;;5003299;28;20046;-79
2021/09/10 03:33:48;;;;;;;10.55;6.63;;;18.60;99.90;;;;;;4991762;28;19936;-77
2021/09/10 03:36:14;;;;;;;;;;;18.60;99.90;;;;;;4975846;28;20042;-77
2021/09/10 03:38:40;;;;;;;8.63;5.82;;;18.60;99.90;;;;;;5040276;28;19950;-77
2021/09/10 03:41:05;;;;;;;;;;;18.60;99.90;;;;;;5007167;28;20045;-80
2021/09/10 03:43:31;;;;;;;9.02;5.43;;;18.60;99.90;;;;;;5009570;28;19928;-79
2021/09/10 03:45:56;;;;;;;;;;;18.60;99.90;;;;;;5000112;28;20038;-78
2021/09/10 03:48:22;;;;;;;10.35;5.88;;;18.60;99.90;;;;;;5008292;28;20256;-77
2021/09/10 03:50:48;;;;;;;;;;;18.60;99.90;;;;;;4975368;28;20065;-77
2021/09/10 03:53:13;;;;;;;10.32;6.57;;;18.60;99.90;;;;;;5009571;28;19918;-78
2021/09/10 03:55:39;;;;;;;7.18;4.70;;;18.60;99.90;;;;;;4975915;28;20068;-79
2021/09/10 03:58:05;;;;;;;;;;;18.60;99.90;;;;;;4992372;28;20046;-80
2021/09/10 04:00:30;;;;;;;8.15;5.60;;;18.60;99.90;;;;;;5036162;28;19947;-77
2021/09/10 04:02:56;;;;;;;;;;;18.60;99.90;;;;;;5005814;28;20038;-79
2021/09/10 04:05:22;;;;;;;9.00;6.30;;;18.60;99.90;;;;;;4983838;28;19917;-77
2021/09/10 04:07:47;;;;;;;;;;;18.60;99.90;;;;;;5007376;28;20447;-77
2021/09/10 04:10:13;;;;;;;7.53;5.45;;;18.60;99.90;;;;;;4977636;28;20371;-79
2021/09/10 04:12:38;;;;;;;;;;;18.60;99.90;;;;;;4987690;28;20057;-77
2021/09/10 04:15:05;;;;;;;13.13;5.70;;;18.60;99.90;;;;;;5042677;28;19966;-77
2021/09/10 04:17:30;;;;;;;10.85;6.38;;;18.50;99.90;;;;;;5006291;28;20042;-78
2021/09/10 04:19:56;;;;;;;7.97;5.00;;;18.50;99.90;;;;;;5001315;28;20053;-79
2021/09/10 04:22:22;;;;;;;;;;;18.50;99.90;;;;;;4997257;28;20067;-78
2021/09/10 04:24:47;;;;;;;14.25;5.95;;;18.40;99.90;;;;;;5026953;28;20042;-79
2021/09/10 04:27:13;;;;;;;;;;;18.40;99.90;;;;;;4976157;28;20038;-80
2021/09/10 04:29:39;;;;;;;7.70;4.38;;;18.30;99.90;;;;;;4991573;28;19969;-78
2021/09/10 04:32:04;;;;;;;;;;;18.30;99.90;;;;;;4989478;28;20050;-77
2021/09/10 04:34:30;;;;;;;12.00;5.78;;;18.30;99.90;;;;;;4995932;28;19925;-79
2021/09/10 04:36:55;;;;;;;;;;;18.20;99.90;;;;;;5037464;28;20111;-79
2021/09/10 04:39:21;;;;;;;9.63;5.25;;;18.20;99.90;;;;;;4998543;28;20015;-77
2021/09/10 04:41:47;;;;;;;;;;;18.20;99.90;;;;;;4962076;28;20052;-79
2021/09/10 04:44:12;;;;;;;10.27;6.07;;;18.20;99.90;;;;;;5042990;28;19944;-77
2021/09/10 04:46:38;;;;;;;;;;;18.10;99.90;;;;;;4991079;28;20121;-78
2021/09/10 04:49:04;;;;;;;9.93;5.88;;;18.10;99.90;;;;;;4986633;28;20331;-80
2021/09/10 04:51:29;;;;;;;;;;;18.10;99.90;;;;;;4975136;28;20054;-79
2021/09/10 04:53:56;;;;;;;6.25;4.80;;;18.10;99.90;;;;;;5030123;28;20298;-79
2021/09/10 04:56:23;;;;;;;12.20;6.22;;;18.10;99.90;;;;;;4994371;28;20355;-80
2021/09/10 04:58:48;;;;;;;6.70;5.47;;;18.10;99.90;;;;;;4974322;28;20053;-78
2021/09/10 05:01:14;;;;;;;11.13;7.15;;;18.10;99.90;;;;;;5003899;28;20041;-78
2021/09/10 05:03:40;;;;;;;;;;;18.10;99.90;;;;;;4990767;28;20050;-78
2021/09/10 05:06:06;;;;;;;17.52;6.25;;;18.20;99.90;;;;;;5036247;28;20405;-78
2021/09/10 05:08:32;;;;;;;6.53;4.97;;;18.10;99.90;;;;;;5010548;28;20176;-78
2021/09/10 05:10:58;;;;;;;9.07;6.28;;;18.20;99.90;;;;;;4974106;28;20539;-78
2021/09/10 05:13:23;;;;;;;;;;;18.20;99.90;;;;;;4958793;28;20078;-79
2021/09/10 05:15:49;;;;;;;13.43;6.55;;;18.20;99.90;;;;;;4998163;28;20370;-78
2021/09/10 05:18:15;;;;;;;;;;;18.20;99.90;;;;;;4993025;28;20128;-77
2021/09/10 05:20:40;;;;;;;10.38;6.43;;;18.30;99.90;;;;;;5043502;28;19917;-77
2021/09/10 05:23:06;;;;;;;;;;;18.30;99.90;;;;;;4996494;28;20603;-79
2021/09/10 05:25:32;;;;;;;10.05;6.45;;;18.40;99.90;;;;;;4990791;28;20499;-79
2021/09/10 05:27:57;;;;;;;;;;;18.40;99.90;;;;;;4974150;28;20077;-76
2021/09/10 05:30:23;;;;;;;11.52;6.03;;;18.50;99.90;;;;;;5003514;28;19921;-78
2021/09/10 05:32:49;;;;;;;;;;;18.50;99.90;;;;;;4973817;28;20047;-77
2021/09/10 05:35:15;;;;;;;10.90;6.40;;;18.60;99.90;;;;;;4974070;28;19922;-78
2021/09/10 05:37:41;;;;;;;10.60;6.13;;;18.60;99.90;;;;;;4997365;28;20049;-77
2021/09/10 05:40:08;;;;;;;11.65;5.72;;;18.60;99.90;;;;;;4977398;28;20042;-77
2021/09/10 05:42:34;;;;;;;8.60;5.35;;;18.60;99.90;;;;;;4991672;28;20049;-79
2021/09/10 05:45:00;;;;;;;10.05;5.13;;;18.50;99.90;;;;;;4977502;28;20042;-78
2021/09/10 05:47:25;;;;;;;;;;;18.40;99.90;;;;;;4991789;28;20120;-78
2021/09/10 05:49:51;;;;;;;9.48;5.82;;;18.40;99.90;;;;;;5028177;28;19956;-78
2021/09/10 05:52:17;;;;;;;;;;;18.30;99.90;;;;;;4996460;28;20108;-78
2021/09/10 05:54:43;;;;;;;14.57;7.20;;;18.30;99.90;;;;;;5040697;28;19918;-79
2021/09/10 05:57:08;;;;;;;;;;;18.20;99.90;;;;;;4977579;28;20053;-77
2021/09/10 05:59:34;;;;;;;10.85;6.68;;;18.20;99.90;;;;;;4995043;28;20295;-78
2021/09/10 06:02:00;;;;;;;;;;;18.20;99.90;;;;;;4993682;28;20130;-79
2021/09/10 06:04:26;;;;;;;8.85;6.07;;;18.20;99.90;;;;;;4994024;28;19997;-80
2021/09/10 06:06:51;;;;;;;;;;;18.20;99.90;;;;;;4994517;28;20053;-78
2021/09/10 06:09:17;;;;;;;8.95;4.60;;;18.20;99.90;;;;;;4993931;28;19924;-79
2021/09/10 06:11:43;;;;;;;;;;;18.10;99.90;;;;;;5006885;28;20129;-80
2021/09/10 06:14:09;;;;;;;13.23;6.85;;;18.10;99.90;;;;;;4995218;28;20076;-78
2021/09/10 06:16:35;;;;;;;;;;;18.10;99.90;;;;;;5007332;28;20101;-77
2021/09/10 06:19:01;;;;;;;11.82;7.65;;;18.10;99.90;;;;;;5009564;28;19925;-78
2021/09/10 06:21:26;;;;;;;11.73;6.28;;;18.10;99.90;;;;;;5007407;28;20073;-80
2021/09/10 06:23:54;;;;;;;;;;;18.10;99.90;;;;;;5001334;28;20043;-78
2021/09/10 06:26:22;;;;;;;10.88;7.07;;;18.20;99.90;;;;;;4994509;28;20100;-77
2021/09/10 06:28:48;;;;;;;10.38;6.18;;;18.20;99.90;;;;;;4990364;28;20054;-78
2021/09/10 06:31:14;;;;;;;10.77;7.32;;;18.20;99.90;;;;;;4994640;28;20042;-77
2021/09/10 06:33:40;;;;;;;;;;;18.30;99.90;;;;;;5003559;28;20054;-79
2021/09/10 06:36:06;;;;;;;13.15;7.93;;;18.30;99.90;;;;;;5000197;28;19957;-78
2021/09/10 06:38:31;;;;;;;;;;;18.30;99.90;;;;;;4984157;28;20165;-79
2021/09/10 06:40:58;;;;;;;15.20;8.70;;;18.40;99.90;;;;;;4993093;28;19969;-77
2021/09/10 06:43:23;;;;;;;13.40;8.60;;;18.40;99.90;;;;;;4993584;28;20046;-80
2021/09/10 06:45:49;;;;;;;12.80;6.90;;;18.40;99.90;;;;;;4960904;28;20049;-78
2021/09/10 06:48:15;;;;;;;;;;;18.50;99.90;;;;;;4992513;28;20088;-78
2021/09/10 06:50:42;;;;;;;11.13;7.47;;;18.50;99.90;;;;;;4993707;28;20004;-78
2021/09/10 06:53:08;;;;;;;16.70;8.10;;;18.50;99.90;;;;;;4989937;28;20124;-77
2021/09/10 06:55:35;;;;;;;11.90;8.57;;;18.60;99.90;;;;;;4976444;28;20125;-80
2021/09/10 06:58:01;;;;;;;15.25;8.40;;;18.70;99.90;;;;;;4960321;28;20125;-77
2021/09/10 07:00:27;;;;;;;16.48;8.05;;;18.80;99.90;;;;;;4977347;28;20053;-78
2021/09/10 07:02:53;;;;;;;12.45;7.47;;;18.90;99.90;;;;;;4984875;28;20498;-77
2021/09/10 07:05:19;;;;;;;19.55;9.10;;;19.00;99.90;;;;;;5006166;28;20051;-78
2021/09/10 07:07:45;;;;;;;;;;;19.10;99.90;;;;;;4977498;28;20121;-78
2021/09/10 07:10:11;;;;;;;17.60;9.88;;;19.10;99.90;;;;;;5009083;28;19941;-80
2021/09/10 07:12:37;;;;;;;12.75;7.55;;;19.10;99.90;;;;;;4993622;28;20604;-79
2021/09/10 07:15:04;;;;;;;15.65;8.75;;;19.20;99.90;;;;;;4981080;28;20046;-78
2021/09/10 07:17:32;;;;;;;15.88;9.82;;;19.20;99.90;;;;;;4999992;28;20435;-78
2021/09/10 07:19:58;;;;;;;14.23;7.78;;;19.30;99.90;;;;;;4987559;28;20047;-78
2021/09/10 07:22:25;;;;;;;16.85;9.50;;;19.40;99.90;;;;;;5005655;28;20042;-78
2021/09/10 07:24:51;;;;;;;15.20;8.55;;;19.40;99.90;;;;;;4984912;28;20175;-78
2021/09/10 07:27:17;;;;;;;17.65;9.68;;;19.60;99.90;;;;;;4993793;28;20543;-78
2021/09/10 07:29:43;;;;;;;;;;;19.60;99.90;;;;;;4992516;28;20492;-80
2021/09/10 07:32:09;;;;;;;16.92;8.23;;;19.70;99.90;;;;;;5002868;28;20004;-79
2021/09/10 07:34:35;;;;;;;13.20;8.35;;;19.80;99.90;;;;;;4981224;28;20068;-79
2021/09/10 07:37:01;;;;;;;16.50;8.73;;;19.90;99.90;;;;;;4991891;28;20101;-78
2021/09/10 07:39:27;;;;;;;16.40;8.35;;;20.00;99.90;;;;;;5000817;28;20061;-80
2021/09/10 07:41:53;;;;;;;13.80;7.88;;;20.10;99.90;;;;;;5012030;28;20121;-81
2021/09/10 07:44:19;;;;;;;17.55;6.93;;;20.10;99.90;;;;;;5011532;28;20177;-79
2021/09/10 07:46:46;;;;;;;13.75;9.48;;;20.20;99.90;;;;;;4998932;28;20516;-81
2021/09/10 07:49:12;;;;;;;20.08;9.55;;;20.20;99.90;;;;;;5002785;28;20113;-78
2021/09/10 07:51:38;;;;;;;14.82;9.35;;;20.30;99.90;;;;;;4992043;28;20453;-79
2021/09/10 07:54:06;;;;;;;15.20;9.63;;;20.30;99.90;;;;;;4999690;28;20439;-77
2021/09/10 07:56:32;;;;;;;18.85;9.48;;;20.30;99.90;;;;;;4997383;28;20057;-76
2021/09/10 07:58:58;;;;;;;17.02;9.10;;;20.40;99.90;;;;;;4982311;28;20034;-78
2021/09/10 08:01:24;;;;;;;17.45;9.30;;;20.50;99.90;;;;;;4987005;28;20085;-81
2021/09/10 08:03:50;;;;;;;11.82;9.13;;;20.60;99.90;;;;;;4974760;28;20518;-78
2021/09/10 08:06:16;;;;;;;19.63;8.82;;;20.70;99.90;;;;;;4992987;28;20050;-79
2021/09/10 08:08:42;;;;;;;14.88;7.85;;;20.90;99.90;;;;;;5002780;28;20053;-79
2021/09/10 08:11:08;;;;;;;17.80;10.18;;;21.10;99.90;;;;;;5003905;28;20046;-77
2021/09/10 08:13:33;;;;;;;17.08;9.40;;;21.30;99.90;;;;;;5000015;28;20056;-79
2021/09/10 08:15:59;;;;;;;15.95;8.90;;;21.50;99.90;;;;;;5002113;28;20045;-78
2021/09/10 08:18:25;;;;;;;15.50;9.07;;;21.70;99.90;;;;;;4993453;28;20085;-79
2021/09/10 08:20:52;;;;;;;23.88;10.18;;;21.80;99.90;;;;;;5006174;28;20042;-79
2021/09/10 08:23:18;;;;;;;15.98;7.45;;;21.80;99.90;;;;;;4999818;28;20042;-78
2021/09/10 08:25:43;;;;;;;16.83;9.13;;;21.90;99.90;;;;;;5011533;28;20471;-80
2021/09/10 08:28:09;;;;;;;13.43;8.20;;;22.00;99.90;;;;;;5010354;28;20511;-79
2021/09/10 08:30:35;;;;;;;17.52;8.68;;;22.10;99.90;;;;;;4997967;28;20050;-79
2021/09/10 08:33:00;;;;;;;15.75;9.05;;;22.30;99.90;;;;;;4985319;28;20082;-76
2021/09/10 08:35:26;;;;;;;19.83;10.77;;;22.60;99.90;;;;;;5004870;28;20488;-79
2021/09/10 08:37:53;;;;;;;13.57;8.75;;;22.60;99.90;;;;;;5000382;28;20041;-77
2021/09/10 08:40:19;;;;;;;10.48;7.57;;;22.50;99.90;;;;;;5009685;28;20539;-78
2021/09/10 08:42:45;;;;;;;16.73;9.63;;;22.40;99.90;;;;;;5001044;28;20125;-77
2021/09/10 08:45:18;;;;;;;12.85;9.32;;;22.40;99.90;;;;;;5010773;28;20113;-77
2021/09/10 08:47:44;;;;;;;19.35;10.48;;;22.40;99.90;;;;;;4985596;28;20069;-79
2021/09/10 08:50:11;;;;;;;14.27;8.25;;;22.30;99.90;;;;;;5003812;28;20402;-79
2021/09/10 08:52:37;;;;;;;13.90;9.60;;;22.20;99.90;;;;;;5000318;28;20042;-77
2021/09/10 08:55:08;;;;;;;12.10;9.30;;;22.00;99.90;;;;;;4995829;28;20042;-78
2021/09/10 08:57:35;;;;;;;19.45;10.57;;;22.00;99.90;;;;;;4990929;28;20042;-81
2021/09/10 09:00:07;;;;;;;18.02;9.98;;;21.90;99.90;;;;;;5021390;28;20423;-78
2021/09/10 09:02:33;;;;;;;15.15;9.40;;;21.80;99.90;;;;;;4985362;28;20411;-80
2021/09/10 09:04:58;;;;;;;16.27;8.43;;;21.70;99.90;;;;;;4976654;28;20081;-79
2021/09/10 09:07:28;;;;;;;18.45;9.32;;;21.80;99.90;;;;;;5001498;28;20081;-81
2021/09/10 09:09:58;;;;;;;14.13;9.18;;;21.70;99.90;;;;;;4992695;28;20387;-76
2021/09/10 09:12:32;;;;;;;17.17;8.40;;;21.70;99.90;;;;;;4990299;28;20922;-78
2021/09/10 09:15:06;;;;;;;16.60;9.57;;;21.70;99.90;;;;;;4997161;28;20042;-79
2021/09/10 09:17:35;;;;;;;17.35;8.93;;;21.60;99.90;;;;;;5004271;28;20045;-77
2021/09/10 09:20:20;;;;;;;17.63;9.35;;;21.60;99.90;;;;;;4994386;28;20519;-78
2021/09/10 09:23:07;;;;;;;15.27;9.07;;;21.60;99.90;;;;;;5008076;28;20042;-79
2021/09/10 09:25:41;;;;;;;13.02;8.35;;;21.70;99.90;;;;;;4994671;28;20050;-77
2021/09/10 09:28:46;;;;;;;18.08;10.70;;;21.80;99.90;;;;;;4993879;28;20058;-78
2021/09/10 09:31:13;;;;;;;24.55;9.43;;;21.80;99.90;;;;;;4960524;28;20555;-78
2021/09/10 09:33:44;;;;;;;22.95;9.32;;;21.80;99.90;;;;;;4976119;28;20081;-79
2021/09/10 09:36:16;;;;;;;15.90;9.95;;;21.80;99.90;;;;;;4984283;28;20069;-78
2021/09/10 09:38:43;;;;;;;22.85;9.25;;;21.80;99.90;;;;;;4996272;28;20042;-78
2021/09/10 09:41:15;;;;;;;18.80;8.95;;;21.80;99.90;;;;;;5009380;28;20050;-79
2021/09/10 09:43:47;;;;;;;17.02;8.95;;;21.80;99.90;;;;;;5010030;28;20053;-80
2021/09/10 09:46:18;;;;;;;18.90;8.75;;;21.90;99.90;;;;;;5010191;28;20069;-81
2021/09/10 09:48:46;;;;;;;15.85;8.40;;;21.90;99.90;;;;;;5009524;28;20120;-81
2021/09/10 09:51:15;;;;;;;15.18;9.70;;;21.90;99.90;;;;;;4977550;28;20050;-79
2021/09/10 09:53:42;;;;;;;17.23;8.35;;;22.00;99.90;;;;;;4991428;28;20042;-79
2021/09/10 09:56:08;;;;;;;14.60;9.02;;;22.00;99.90;;;;;;4997186;28;20124;-79
2021/09/10 09:58:36;;;;;;;15.65;9.93;;;22.10;99.90;;;;;;4998199;28;20052;-78
2021/09/10 10:01:04;;;;;;;15.95;8.50;;;22.00;99.90;;;;;;5015067;28;20046;-78
2021/09/10 10:03:30;;;;;;;16.67;10.30;;;22.00;99.90;;;;;;4979966;28;20076;-78
2021/09/10 10:06:10;;;;;;;15.88;8.95;;;21.90;99.90;;;;;;5013577;28;20042;-81
2021/09/10 10:08:55;;;;;;;15.52;9.32;;;22.00;99.90;;;;;;5006558;28;20053;-79
2021/09/10 10:11:29;;;;;;;11.18;7.50;;;22.00;99.90;;;;;;4997112;28;20549;-80
2021/09/10 10:13:58;;;;;;;20.23;11.07;;;22.10;99.90;;;;;;5001722;28;20562;-80
2021/09/10 10:16:41;;;;;;;12.82;7.10;;;22.10;99.90;;;;;;5015318;28;20077;-78
2021/09/10 10:19:34;;;;;;;14.65;8.88;;;22.20;99.90;;;;;;4995685;28;20488;-79
2021/09/10 10:22:02;;;;;;;13.32;7.68;;;22.40;99.90;;;;;;5005126;28;20038;-78
2021/09/10 10:24:42;;;;;;;14.18;8.73;;;22.40;99.90;;;;;;5000774;28;20104;-79
2021/09/10 10:27:35;;;;;;;16.75;8.95;;;22.50;99.90;;;;;;4998927;28;20372;-80
2021/09/10 10:30:08;;;;;;;14.88;9.00;;;22.60;99.90;;;;;;4993640;28;20061;-81
2021/09/10 10:32:41;;;;;;;15.82;8.30;;;22.70;99.90;;;;;;5007889;28;20128;-80
2021/09/10 10:35:40;;;;;;;14.38;9.38;;;22.80;99.90;;;;;;5000166;28;20054;-80
2021/09/10 10:38:07;;;;;;;18.17;10.68;;;22.80;99.90;;;;;;4977875;28;20050;-79
2021/09/10 10:40:49;;;;;;;14.05;8.75;;;22.80;99.90;;;;;;5006689;28;20058;-81
2021/09/10 10:43:18;;;;;;;19.80;10.52;;;22.70;99.90;;;;;;4989815;28;20049;-77
2021/09/10 10:45:46;;;;;;;15.32;8.05;;;22.60;99.90;;;;;;4996164;28;20084;-78
2021/09/10 10:48:33;;;;;;;15.00;7.95;;;22.70;99.90;;;;;;4998479;28;20046;-80
2021/09/10 10:51:02;;;;;;;;;;;22.70;99.90;;;;;;4994312;28;20113;-76
2021/09/10 10:53:46;;;;;;;16.73;8.43;;;22.80;99.90;;;;;;5039138;28;19924;-78
2021/09/10 10:56:21;;;;;;;20.23;9.02;;;22.80;99.90;;;;;;4992760;28;20125;-78
2021/09/10 10:59:24;;;;;;;14.10;7.45;;;23.00;99.90;;;;;;4993884;28;20082;-78
2021/09/10 11:02:36;;;;;;;17.25;8.90;;;23.00;99.90;;;;;;4980073;28;20046;-81
2021/09/10 11:05:15;;;;;;;14.90;8.57;;;23.00;99.90;;;;;;4999537;28;20441;-78
2021/09/10 11:07:42;;;;;;;15.68;8.55;;;23.00;99.90;;;;;;4983821;28;20042;-80
2021/09/10 11:10:18;;;;;;;16.83;8.23;;;23.00;99.90;;;;;;4982925;28;20038;-78
2021/09/10 11:12:46;;;;;;;12.88;8.50;;;23.10;99.90;;;;;;4983484;28;20050;-78
2021/09/10 11:15:23;;;;;;;18.85;8.68;;;23.00;99.90;;;;;;5004402;28;20042;-78
2021/09/10 11:17:57;;;;;;;19.38;9.65;;;22.80;99.90;;;;;;5004826;28;20500;-79
2021/09/10 11:20:31;;;;;;;13.50;7.53;;;22.70;99.90;;;;;;5006186;28;20466;-79
2021/09/10 11:22:58;;;;;;;17.35;10.05;;;22.70;99.90;;;;;;4992911;28;20038;-80
2021/09/10 11:25:24;;;;;;;23.08;10.48;;;22.50;99.90;;;;;;4983936;28;20062;-78
2021/09/10 11:27:50;;;;;;;16.15;9.68;;;22.60;99.90;;;;;;5006816;28;20117;-78
2021/09/10 11:30:16;;;;;;;21.10;9.55;;;22.70;99.90;;;;;;5005017;28;20129;-79
2021/09/10 11:32:42;;;;;;;20.42;8.65;;;22.90;99.90;;;;;;4963293;28;20476;-80
2021/09/10 11:35:20;;;;;;;11.85;8.10;;;23.10;99.90;;;;;;4999591;28;20493;-80
2021/09/10 11:37:53;;;;;;;14.02;8.70;;;;;;;;;;4996370;28;20720;-78
2021/09/10 11:40:32;;;;;;;17.73;8.98;;;22.60;99.90;;;;;;5006242;28;20046;-79
2021/09/10 11:43:07;;;;;;;12.40;8.45;;;;;;;;;;4992333;28;20046;-78
2021/09/10 11:45:36;;;;;;;15.90;9.50;;;23.90;99.90;;;;;;4996637;28;20034;-78
2021/09/10 11:48:04;;;;;;;15.32;9.60;;;24.00;99.90;;;;;;5000570;28;20495;-79
2021/09/10 11:50:52;;;;;;;13.45;8.68;;;24.20;99.90;;;;;;4998127;28;20046;-78
2021/09/10 11:53:28;;;;;;;12.57;8.82;;;24.40;99.90;;;;;;4998552;28;20129;-79
2021/09/10 11:55:54;;;;;;;;;;;;;;;;;;4996796;28;20042;-79
2021/09/10 11:58:31;;;;;;;10.87;7.27;;;24.70;99.90;;;;;;4993669;28;20342;-78
2021/09/10 12:01:15;;;;;;;;;;;24.80;99.90;;;;;;4994260;28;20285;-78
2021/09/10 12:03:57;;;;;;;14.55;7.75;;;24.80;99.90;;;;;;4996315;28;19921;-78
2021/09/10 12:06:27;;;;;;;17.77;8.85;;;24.70;99.90;;;;;;4994425;28;20045;-79
2021/09/10 12:09:12;;;;;;;14.07;8.27;;;24.60;99.90;;;;;;4992540;28;20464;-80
2021/09/10 12:12:09;;;;;;;11.77;7.87;;;24.50;99.90;;;;;;4997481;28;20053;-80
2021/09/10 12:14:52;;;;;;;13.73;8.45;;;24.50;99.90;;;;;;4994521;28;20081;-78
2021/09/10 12:17:34;;;;;;;18.80;8.82;;;24.60;99.90;;;;;;4991625;28;20034;-80
2021/09/10 12:20:13;;;;;;;13.75;7.85;;;24.60;99.90;;;;;;4991389;28;20500;-79
2021/09/10 12:22:53;;;;;;;13.13;8.48;;;24.70;99.90;;;;;;5015029;28;20060;-79
2021/09/10 12:25:24;;;;;;;12.65;7.85;;;24.80;99.90;;;;;;4995147;28;20080;-80
2021/09/10 12:30:43;;;;;;;11.80;7.88;;;24.50;99.90;;;;;;5006855;28;20046;-82
2021/09/10 12:33:12;;;;;;;13.63;7.20;;;24.60;99.90;;;;;;4984985;28;20459;-82
2021/09/10 12:35:38;;;;;;;13.27;8.65;;;24.70;99.90;;;;;;4991938;28;20046;-79
2021/09/10 12:38:16;;;;;;;9.63;7.97;;;24.90;99.90;;;;;;4981926;28;20039;-80
2021/09/10 12:40:44;;;;;;;12.07;8.57;;;25.10;99.90;;;;;;4995156;28;20041;-79
2021/09/10 12:43:12;;;;;;;11.52;7.60;;;25.20;99.90;;;;;;5002722;28;20503;-80
2021/09/10 12:45:38;;;;;;;13.60;8.60;;;25.40;99.90;;;;;;4991513;28;20042;-77
2021/09/10 12:48:04;;;;;;;8.35;6.03;;;25.80;99.90;;;;;;4998687;28;20043;-79
2021/09/10 12:50:31;;;;;;;13.43;8.13;;;26.00;99.90;;;;;;5004023;28;20097;-82
2021/09/10 12:52:57;;;;;;;11.20;7.65;;;26.00;99.90;;;;;;4976961;28;20088;-81
2021/09/10 12:55:23;;;;;;;12.30;7.10;;;26.00;99.90;;;;;;5008170;28;20046;-82
2021/09/10 12:57:49;;;;;;;14.05;8.55;;;25.90;99.90;;;;;;5006432;28;20046;-79
2021/09/10 13:00:15;;;;;;;11.00;6.43;;;25.70;99.90;;;;;;4995800;28;20050;-79
2021/09/10 13:02:41;;;;;;;12.38;6.93;;;25.40;99.90;;;;;;4995457;28;20483;-80
2021/09/10 13:05:08;;;;;;;14.30;8.05;;;25.10;99.90;;;;;;4996139;28;20047;-79
2021/09/10 13:07:35;;;;;;;12.75;6.85;;;24.80;99.90;;;;;;4978616;28;20042;-80